createdAt,value
2023-04-20T00:00:25.002Z,10.16
2023-04-20T00:01:25.033Z,10.08
2023-04-20T00:02:25.123Z,10.12
2023-04-20T00:03:25.213Z,10.14
2023-04-20T00:04:24.955Z,10.06
2023-04-20T00:05:24.963Z,10.06
2023-04-20T00:06:24.953Z,10.12
2023-04-20T00:07:24.946Z,10.10
2023-04-20T00:08:24.903Z,10.06
2023-04-20T00:09:24.909Z,10.14
2023-04-20T00:10:24.895Z,10.09
2023-04-20T00:11:24.884Z,10.06
2023-04-20T00:12:24.877Z,10.14
2023-04-20T00:13:24.897Z,10.03
2023-04-20T00:14:24.834Z,10.08
2023-04-20T00:15:24.830Z,10.08
2023-04-20T00:16:24.843Z,10.08
2023-04-20T00:17:24.836Z,10.06
2023-04-20T00:18:24.793Z,10.08
2023-04-20T00:19:24.803Z,10.05
2023-04-20T00:20:24.768Z,10.14
2023-04-20T00:21:24.789Z,10.06
2023-04-20T00:22:24.756Z,10.12
2023-04-20T00:23:24.747Z,10.02
2023-04-20T00:24:24.745Z,10.09
2023-04-20T00:25:24.737Z,10.12
2023-04-20T00:26:24.705Z,10.12
2023-04-20T00:27:24.725Z,10.12
2023-04-20T00:28:24.690Z,10.06
2023-04-20T00:29:24.695Z,9.96
2023-04-20T00:30:24.662Z,10.09
2023-04-20T00:31:24.738Z,10.09
2023-04-20T00:32:24.694Z,10.01
2023-04-20T00:33:24.641Z,10.02
2023-04-20T00:34:24.618Z,10.02
2023-04-20T00:35:24.622Z,10.06
2023-04-20T00:36:24.591Z,9.93
2023-04-20T00:37:24.608Z,10.01
2023-04-20T00:38:24.570Z,10.01
2023-04-20T00:39:24.567Z,10.03
2023-04-20T00:40:24.549Z,10.02
2023-04-20T00:41:24.551Z,9.99
2023-04-20T00:42:24.558Z,10.02
2023-04-20T00:43:24.536Z,10.06
2023-04-20T00:44:24.525Z,10.06
2023-04-20T00:45:24.526Z,10.05
2023-04-20T00:46:24.528Z,10.02
2023-04-20T00:47:24.545Z,9.94
2023-04-20T00:48:24.460Z,9.91
2023-04-20T00:49:24.466Z,9.99
2023-04-20T00:50:24.443Z,10.03
2023-04-20T00:51:24.438Z,10.06
2023-04-20T00:52:24.441Z,9.93
2023-04-20T00:53:24.424Z,10.05
2023-04-20T00:54:24.397Z,9.96
2023-04-20T00:55:24.388Z,10.05
2023-04-20T00:56:24.371Z,10.02
2023-04-20T00:57:24.362Z,9.87
2023-04-20T00:58:24.379Z,10.02
2023-04-20T00:59:24.351Z,10.02
2023-04-20T01:00:24.396Z,9.96
2023-04-20T01:01:24.379Z,10.01
2023-04-20T01:02:24.546Z,9.96
2023-04-20T01:03:24.420Z,9.85
2023-04-20T01:04:24.418Z,9.90
2023-04-20T01:05:24.295Z,9.98
2023-04-20T01:06:24.264Z,9.98
2023-04-20T01:07:24.280Z,9.87
2023-04-20T01:08:24.259Z,9.87
2023-04-20T01:09:24.236Z,9.98
2023-04-20T01:10:24.219Z,9.88
2023-04-20T01:11:24.253Z,9.87
2023-04-20T01:12:24.204Z,9.90
2023-04-20T01:13:24.218Z,9.84
2023-04-20T01:14:24.178Z,9.87
2023-04-20T01:15:24.178Z,9.87
2023-04-20T01:16:24.226Z,9.94
2023-04-20T01:17:24.211Z,9.81
2023-04-20T01:18:24.156Z,9.80
2023-04-20T01:19:24.126Z,9.91
2023-04-20T01:20:24.109Z,9.88
2023-04-20T01:21:24.135Z,9.83
2023-04-20T01:22:24.110Z,9.88
2023-04-20T01:23:24.079Z,9.85
2023-04-20T01:24:24.072Z,9.81
2023-04-20T01:25:24.088Z,9.85
2023-04-20T01:26:24.081Z,9.88
2023-04-20T01:27:24.045Z,9.87
2023-04-20T01:28:24.025Z,9.84
2023-04-20T01:29:24.020Z,9.91
2023-04-20T01:30:24.024Z,9.84
2023-04-20T01:31:24.008Z,9.90
2023-04-20T01:32:24.038Z,9.91
2023-04-20T01:33:24.069Z,9.87
2023-04-20T01:34:23.963Z,9.85
2023-04-20T01:35:23.981Z,9.81
2023-04-20T01:36:23.940Z,9.78
2023-04-20T01:37:23.953Z,9.84
2023-04-20T01:38:23.921Z,9.84
2023-04-20T01:39:23.944Z,9.83
2023-04-20T01:40:23.901Z,9.81
2023-04-20T01:41:23.896Z,9.87
2023-04-20T01:42:23.901Z,9.77
2023-04-20T01:43:23.864Z,9.87
2023-04-20T01:44:23.863Z,9.88
2023-04-20T01:45:23.861Z,9.78
2023-04-20T01:46:23.913Z,9.78
2023-04-20T01:47:23.926Z,9.73
2023-04-20T01:48:23.817Z,9.77
2023-04-20T01:49:23.826Z,9.84
2023-04-20T01:50:23.791Z,9.70
2023-04-20T01:51:23.789Z,9.77
2023-04-20T01:52:23.790Z,9.80
2023-04-20T01:53:23.760Z,9.73
2023-04-20T01:54:23.767Z,9.72
2023-04-20T01:55:23.742Z,9.81
2023-04-20T01:56:23.756Z,9.83
2023-04-20T01:57:23.717Z,9.75
2023-04-20T01:58:23.710Z,9.80
2023-04-20T01:59:23.714Z,9.75
2023-04-20T02:00:23.704Z,9.73
2023-04-20T02:01:23.743Z,9.81
2023-04-20T02:02:23.780Z,9.78
2023-04-20T02:03:23.993Z,9.75
2023-04-20T02:04:23.640Z,9.83
2023-04-20T02:05:23.686Z,9.84
2023-04-20T02:06:23.646Z,9.80
2023-04-20T02:07:23.613Z,9.78
2023-04-20T02:08:23.599Z,9.69
2023-04-20T02:09:23.616Z,9.81
2023-04-20T02:10:23.594Z,9.70
2023-04-20T02:11:23.571Z,9.73
2023-04-20T02:12:23.551Z,9.78
2023-04-20T02:13:23.558Z,9.75
2023-04-20T02:14:23.556Z,9.75
2023-04-20T02:15:23.528Z,9.78
2023-04-20T02:16:23.513Z,9.73
2023-04-20T02:17:23.828Z,9.69
2023-04-20T02:18:23.489Z,9.75
2023-04-20T02:19:23.504Z,9.73
2023-04-20T02:20:23.466Z,9.73
2023-04-20T02:21:23.471Z,9.66
2023-04-20T02:22:23.439Z,9.67
2023-04-20T02:23:23.444Z,9.70
2023-04-20T02:24:23.447Z,9.69
2023-04-20T02:25:23.411Z,9.78
2023-04-20T02:26:23.392Z,9.78
2023-04-20T02:27:23.394Z,9.65
2023-04-20T02:28:23.372Z,9.73
2023-04-20T02:29:23.387Z,9.75
2023-04-20T02:30:23.363Z,9.69
2023-04-20T02:31:23.376Z,9.59
2023-04-20T02:32:23.408Z,9.72
2023-04-20T02:33:23.319Z,9.67
2023-04-20T02:34:23.316Z,9.63
2023-04-20T02:35:23.311Z,9.73
2023-04-20T02:36:23.284Z,9.69
2023-04-20T02:37:23.308Z,9.65
2023-04-20T02:38:23.316Z,9.67
2023-04-20T02:39:23.255Z,9.65
2023-04-20T02:40:23.245Z,9.66
2023-04-20T02:41:23.265Z,9.69
2023-04-20T02:42:23.254Z,9.67
2023-04-20T02:43:23.210Z,9.69
2023-04-20T02:44:23.226Z,9.65
2023-04-20T02:45:23.217Z,9.62
2023-04-20T02:46:23.216Z,9.57
2023-04-20T02:47:23.225Z,9.65
2023-04-20T02:48:23.158Z,9.63
2023-04-20T02:49:23.171Z,9.62
2023-04-20T02:50:23.135Z,9.59
2023-04-20T02:51:23.129Z,9.62
2023-04-20T02:52:23.127Z,9.57
2023-04-20T02:53:23.141Z,9.62
2023-04-20T02:54:23.121Z,9.57
2023-04-20T02:55:23.081Z,9.62
2023-04-20T02:56:23.069Z,9.54
2023-04-20T02:57:23.068Z,9.63
2023-04-20T02:58:23.074Z,9.60
2023-04-20T02:59:23.048Z,9.59
2023-04-20T03:00:23.046Z,9.62
2023-04-20T03:01:23.080Z,9.65
2023-04-20T03:02:23.087Z,9.60
2023-04-20T03:03:23.187Z,9.60
2023-04-20T03:04:23.159Z,9.59
2023-04-20T03:05:23.000Z,9.59
2023-04-20T03:06:22.990Z,9.65
2023-04-20T03:07:22.986Z,9.67
2023-04-20T03:08:22.945Z,9.60
2023-04-20T03:09:22.976Z,9.60
2023-04-20T03:10:22.925Z,9.60
2023-04-20T03:11:22.930Z,9.60
2023-04-20T03:12:22.944Z,9.59
2023-04-20T03:13:22.904Z,9.63
2023-04-20T03:14:22.904Z,9.54
2023-04-20T03:15:22.894Z,9.65
2023-04-20T03:16:22.944Z,9.54
2023-04-20T03:17:22.889Z,9.65
2023-04-20T03:18:22.834Z,9.63
2023-04-20T03:19:22.857Z,9.65
2023-04-20T03:20:22.812Z,9.60
2023-04-20T03:21:22.802Z,9.63
2023-04-20T03:22:22.809Z,9.57
2023-04-20T03:23:22.784Z,9.62
2023-04-20T03:24:22.767Z,9.60
2023-04-20T03:25:22.776Z,9.59
2023-04-20T03:26:22.744Z,9.63
2023-04-20T03:27:22.767Z,9.63
2023-04-20T03:28:22.725Z,9.63
2023-04-20T03:29:22.714Z,9.63
2023-04-20T03:30:22.698Z,9.57
2023-04-20T03:31:22.714Z,9.54
2023-04-20T03:32:22.810Z,9.60
2023-04-20T03:33:22.670Z,9.57
2023-04-20T03:34:22.654Z,9.59
2023-04-20T03:35:22.653Z,9.66
2023-04-20T03:36:22.647Z,9.62
2023-04-20T03:37:22.655Z,9.57
2023-04-20T03:38:22.613Z,9.59
2023-04-20T03:39:22.615Z,9.62
2023-04-20T03:40:22.591Z,9.65
2023-04-20T03:41:22.637Z,9.55
2023-04-20T03:42:22.573Z,9.57
2023-04-20T03:43:22.558Z,9.57
2023-04-20T03:44:22.552Z,9.51
2023-04-20T03:45:22.530Z,9.60
2023-04-20T03:46:23.538Z,9.62
2023-04-20T03:47:22.565Z,9.54
2023-04-20T03:48:22.501Z,9.57
2023-04-20T03:49:22.489Z,9.57
2023-04-20T03:50:22.487Z,9.55
2023-04-20T03:51:22.466Z,9.62
2023-04-20T03:52:22.539Z,9.57
2023-04-20T03:53:22.453Z,9.55
2023-04-20T03:54:22.437Z,9.62
2023-04-20T03:55:22.425Z,9.52
2023-04-20T03:56:22.422Z,9.60
2023-04-20T03:57:22.447Z,9.55
2023-04-20T03:58:22.406Z,9.55
2023-04-20T03:59:22.410Z,9.59
2023-04-20T04:00:22.370Z,9.55
2023-04-20T04:01:22.357Z,9.59
2023-04-20T04:02:22.840Z,9.54
2023-04-20T04:03:22.542Z,9.54
2023-04-20T04:04:22.796Z,9.51
2023-04-20T04:05:22.368Z,9.57
2023-04-20T04:06:22.322Z,9.54
2023-04-20T04:07:22.323Z,9.57
2023-04-20T04:08:22.292Z,9.44
2023-04-20T04:09:22.279Z,9.57
2023-04-20T04:10:22.277Z,9.57
2023-04-20T04:11:22.250Z,9.54
2023-04-20T04:12:22.264Z,9.59
2023-04-20T04:13:22.249Z,9.52
2023-04-20T04:14:22.230Z,9.55
2023-04-20T04:15:22.209Z,9.55
2023-04-20T04:16:22.246Z,9.54
2023-04-20T04:17:22.261Z,9.57
2023-04-20T04:18:22.208Z,9.55
2023-04-20T04:19:22.164Z,9.57
2023-04-20T04:20:22.178Z,9.52
2023-04-20T04:21:22.147Z,9.54
2023-04-20T04:22:22.158Z,9.55
2023-04-20T04:23:22.120Z,9.44
2023-04-20T04:24:22.115Z,9.47
2023-04-20T04:25:22.099Z,9.47
2023-04-20T04:26:22.093Z,9.55
2023-04-20T04:27:22.113Z,9.52
2023-04-20T04:28:22.066Z,9.54
2023-04-20T04:29:22.101Z,9.52
2023-04-20T04:30:22.060Z,9.51
2023-04-20T04:31:22.083Z,9.54
2023-04-20T04:32:22.053Z,9.54
2023-04-20T04:33:22.047Z,9.55
2023-04-20T04:34:22.006Z,9.50
2023-04-20T04:35:22.096Z,9.45
2023-04-20T04:36:22.019Z,9.41
2023-04-20T04:37:21.973Z,9.51
2023-04-20T04:38:21.991Z,9.51
2023-04-20T04:39:21.956Z,9.47
2023-04-20T04:40:21.953Z,9.52
2023-04-20T04:41:21.941Z,9.50
2023-04-20T04:42:21.932Z,9.55
2023-04-20T04:43:21.929Z,9.52
2023-04-20T04:44:21.899Z,9.51
2023-04-20T04:45:21.911Z,9.48
2023-04-20T04:46:21.930Z,9.54
2023-04-20T04:47:22.039Z,9.52
2023-04-20T04:48:21.863Z,9.42
2023-04-20T04:49:21.846Z,9.52
2023-04-20T04:50:21.842Z,9.48
2023-04-20T04:51:21.849Z,9.51
2023-04-20T04:52:21.817Z,9.52
2023-04-20T04:53:21.805Z,9.44
2023-04-20T04:54:21.810Z,9.47
2023-04-20T04:55:21.785Z,9.42
2023-04-20T04:56:21.786Z,9.55
2023-04-20T04:57:21.755Z,9.50
2023-04-20T04:58:21.763Z,9.44
2023-04-20T04:59:21.742Z,9.50
2023-04-20T05:00:21.736Z,9.44
2023-04-20T05:01:21.777Z,9.52
2023-04-20T05:02:21.912Z,9.48
2023-04-20T05:03:21.815Z,9.54
2023-04-20T05:04:21.890Z,9.55
2023-04-20T05:05:21.683Z,9.55
2023-04-20T05:06:21.681Z,9.52
2023-04-20T05:07:21.645Z,9.57
2023-04-20T05:08:21.646Z,9.60
2023-04-20T05:09:21.661Z,9.52
2023-04-20T05:10:21.659Z,9.51
2023-04-20T05:11:21.608Z,9.54
2023-04-20T05:12:21.597Z,9.52
2023-04-20T05:13:21.584Z,9.52
2023-04-20T05:14:21.575Z,9.51
2023-04-20T05:15:21.584Z,9.60
2023-04-20T05:16:21.584Z,9.59
2023-04-20T05:17:21.633Z,9.60
2023-04-20T05:18:21.532Z,9.52
2023-04-20T05:19:21.513Z,9.60
2023-04-20T05:20:21.527Z,9.51
2023-04-20T05:21:21.517Z,9.63
2023-04-20T05:22:21.489Z,9.62
2023-04-20T05:23:21.471Z,9.55
2023-04-20T05:24:21.470Z,9.55
2023-04-20T05:25:21.459Z,9.57
2023-04-20T05:26:21.463Z,9.65
2023-04-20T05:27:21.435Z,9.57
2023-04-20T05:28:21.421Z,9.57
2023-04-20T05:29:21.430Z,9.57
2023-04-20T05:30:22.244Z,9.59
2023-04-20T05:31:21.434Z,9.57
2023-04-20T05:32:21.441Z,9.59
2023-04-20T05:33:21.473Z,9.57
2023-04-20T05:34:21.374Z,9.52
2023-04-20T05:35:21.525Z,9.57
2023-04-20T05:36:21.371Z,9.59
2023-04-20T05:37:21.339Z,9.59
2023-04-20T05:38:21.317Z,9.63
2023-04-20T05:39:21.297Z,9.62
2023-04-20T05:40:21.290Z,9.60
2023-04-20T05:41:21.307Z,9.57
2023-04-20T05:42:21.277Z,9.60
2023-04-20T05:43:21.257Z,9.62
2023-04-20T05:44:21.246Z,9.59
2023-04-20T05:45:21.252Z,9.60
2023-04-20T05:46:21.329Z,9.65
2023-04-20T05:47:21.262Z,9.54
2023-04-20T05:48:21.201Z,9.60
2023-04-20T05:49:21.212Z,9.65
2023-04-20T05:50:21.185Z,9.57
2023-04-20T05:51:21.168Z,9.63
2023-04-20T05:52:21.181Z,9.63
2023-04-20T05:53:21.152Z,9.62
2023-04-20T05:54:21.169Z,9.66
2023-04-20T05:55:22.514Z,9.62
2023-04-20T05:56:21.125Z,9.65
2023-04-20T05:57:21.132Z,9.60
2023-04-20T05:58:21.105Z,9.60
2023-04-20T05:59:21.095Z,9.65
2023-04-20T06:00:22.009Z,9.70
2023-04-20T06:01:21.064Z,9.62
2023-04-20T06:02:21.247Z,9.70
2023-04-20T06:03:21.261Z,9.63
2023-04-20T06:04:21.260Z,9.67
2023-04-20T06:05:21.175Z,9.69
2023-04-20T06:06:21.013Z,9.62
2023-04-20T06:07:21.004Z,9.77
2023-04-20T06:08:20.996Z,9.77
2023-04-20T06:09:20.977Z,9.69
2023-04-20T06:10:21.004Z,9.72
2023-04-20T06:11:20.972Z,9.70
2023-04-20T06:12:20.984Z,9.72
2023-04-20T06:13:20.939Z,9.73
2023-04-20T06:14:20.947Z,9.77
2023-04-20T06:15:20.930Z,9.73
2023-04-20T06:16:20.958Z,9.80
2023-04-20T06:17:21.072Z,9.78
2023-04-20T06:18:20.891Z,9.80
2023-04-20T06:19:20.888Z,9.80
2023-04-20T06:20:20.884Z,9.80
2023-04-20T06:21:20.912Z,9.81
2023-04-20T06:22:20.841Z,9.83
2023-04-20T06:23:20.847Z,9.78
2023-04-20T06:24:20.837Z,9.80
2023-04-20T06:25:20.813Z,9.81
2023-04-20T06:26:20.804Z,9.80
2023-04-20T06:27:20.789Z,9.78
2023-04-20T06:28:20.794Z,9.80
2023-04-20T06:29:20.807Z,9.77
2023-04-20T06:30:20.758Z,9.80
2023-04-20T06:31:20.765Z,9.87
2023-04-20T06:32:20.744Z,9.83
2023-04-20T06:33:20.718Z,9.85
2023-04-20T06:34:20.717Z,9.87
2023-04-20T06:35:20.724Z,9.90
2023-04-20T06:36:20.688Z,9.83
2023-04-20T06:37:20.708Z,9.88
2023-04-20T06:38:20.669Z,9.85
2023-04-20T06:39:20.672Z,9.88
2023-04-20T06:40:20.651Z,9.85
2023-04-20T06:41:20.625Z,9.91
2023-04-20T06:42:20.658Z,9.88
2023-04-20T06:43:20.634Z,9.90
2023-04-20T06:44:20.626Z,9.91
2023-04-20T06:45:20.603Z,9.88
2023-04-20T06:46:20.705Z,9.88
2023-04-20T06:47:20.619Z,9.85
2023-04-20T06:48:31.310Z,9.98
2023-04-20T06:49:21.540Z,9.98
2023-04-20T06:50:20.536Z,9.94
2023-04-20T06:51:20.529Z,9.96
2023-04-20T06:52:20.522Z,9.91
2023-04-20T06:53:20.563Z,10.02
2023-04-20T06:54:20.530Z,9.96
2023-04-20T06:55:20.469Z,10.03
2023-04-20T06:56:20.474Z,10.02
2023-04-20T06:57:20.478Z,10.03
2023-04-20T06:58:20.444Z,9.98
2023-04-20T06:59:20.734Z,10.02
2023-04-20T07:00:20.446Z,10.09
2023-04-20T07:01:20.439Z,10.03
2023-04-20T07:02:20.466Z,10.06
2023-04-20T07:03:20.512Z,10.01
2023-04-20T07:04:20.429Z,10.05
2023-04-20T07:05:20.394Z,10.05
2023-04-20T07:06:20.361Z,10.12
2023-04-20T07:07:20.350Z,10.14
2023-04-20T07:08:20.334Z,10.12
2023-04-20T07:09:20.379Z,10.09
2023-04-20T07:10:20.316Z,10.09
2023-04-20T07:11:20.298Z,10.08
2023-04-20T07:12:20.305Z,10.10
2023-04-20T07:13:20.277Z,10.12
2023-04-20T07:14:20.290Z,10.14
2023-04-20T07:15:20.253Z,10.18
2023-04-20T07:16:20.296Z,10.23
2023-04-20T07:17:20.252Z,10.20
2023-04-20T07:18:20.223Z,10.27
2023-04-20T07:19:20.214Z,10.17
2023-04-20T07:20:20.214Z,10.28
2023-04-20T07:21:20.204Z,10.27
2023-04-20T07:22:20.219Z,10.24
2023-04-20T07:23:20.175Z,10.27
2023-04-20T07:24:20.166Z,10.27
2023-04-20T07:25:20.192Z,10.26
2023-04-20T07:26:20.155Z,10.28
2023-04-20T07:27:20.152Z,10.35
2023-04-20T07:28:20.116Z,10.43
2023-04-20T07:29:20.516Z,10.48
2023-04-20T07:30:20.112Z,10.48
2023-04-20T07:31:20.142Z,10.41
2023-04-20T07:32:20.188Z,10.43
2023-04-20T07:33:20.063Z,10.46
2023-04-20T07:34:20.253Z,10.52
2023-04-20T07:35:20.075Z,10.49
2023-04-20T07:36:20.047Z,10.48
2023-04-20T07:37:20.047Z,10.58
2023-04-20T07:38:20.015Z,10.55
2023-04-20T07:39:20.080Z,10.60
2023-04-20T07:40:20.009Z,10.52
2023-04-20T07:41:20.037Z,10.57
2023-04-20T07:42:19.968Z,10.62
2023-04-20T07:43:19.963Z,10.60
2023-04-20T07:44:19.946Z,10.68
2023-04-20T07:45:19.953Z,10.67
2023-04-20T07:46:20.144Z,10.70
2023-04-20T07:47:19.918Z,10.75
2023-04-20T07:48:19.906Z,10.76
2023-04-20T07:49:20.221Z,10.75
2023-04-20T07:50:19.882Z,10.83
2023-04-20T07:51:19.902Z,10.80
2023-04-20T07:52:19.882Z,10.80
2023-04-20T07:53:19.856Z,10.91
2023-04-20T07:54:19.842Z,10.82
2023-04-20T07:55:19.870Z,10.86
2023-04-20T07:56:19.824Z,10.87
2023-04-20T07:57:19.827Z,10.86
2023-04-20T07:58:19.791Z,10.85
2023-04-20T07:59:19.912Z,10.86
2023-04-20T08:00:19.779Z,10.95
2023-04-20T08:01:19.928Z,10.97
2023-04-20T08:02:19.832Z,10.93
2023-04-20T08:03:20.037Z,10.98
2023-04-20T08:04:20.047Z,11.01
2023-04-20T08:05:19.921Z,11.01
2023-04-20T08:06:19.706Z,11.04
2023-04-20T08:07:19.707Z,11.05
2023-04-20T08:08:19.691Z,11.05
2023-04-20T08:09:19.746Z,11.03
2023-04-20T08:10:19.682Z,11.03
2023-04-20T08:11:19.651Z,11.05
2023-04-20T08:12:19.669Z,11.04
2023-04-20T08:13:19.683Z,11.09
2023-04-20T08:14:19.814Z,11.04
2023-04-20T08:15:19.627Z,11.05
2023-04-20T08:16:19.623Z,11.05
2023-04-20T08:17:19.624Z,11.13
2023-04-20T08:18:21.300Z,11.12
2023-04-20T08:19:19.597Z,11.19
2023-04-20T08:20:19.562Z,11.20
2023-04-20T08:21:19.551Z,11.20
2023-04-20T08:22:19.542Z,11.22
2023-04-20T08:23:19.535Z,11.22
2023-04-20T08:24:19.808Z,11.22
2023-04-20T08:25:19.511Z,11.22
2023-04-20T08:26:19.489Z,11.20
2023-04-20T08:27:19.503Z,11.28
2023-04-20T08:28:32.401Z,11.33
2023-04-20T08:29:20.778Z,11.30
2023-04-20T08:30:19.475Z,11.37
2023-04-20T08:31:19.472Z,11.41
2023-04-20T08:32:19.426Z,11.41
2023-04-20T08:33:19.454Z,11.38
2023-04-20T08:34:19.432Z,11.41
2023-04-20T08:35:19.416Z,11.45
2023-04-20T08:36:19.401Z,11.48
2023-04-20T08:37:19.371Z,11.54
2023-04-20T08:38:23.712Z,11.48
2023-04-20T08:39:20.355Z,11.43
2023-04-20T08:40:19.340Z,11.48
2023-04-20T08:41:19.330Z,11.51
2023-04-20T08:42:19.323Z,11.56
2023-04-20T08:43:21.204Z,11.48
2023-04-20T08:44:19.294Z,11.52
2023-04-20T08:45:19.376Z,11.56
2023-04-20T08:46:19.335Z,11.62
2023-04-20T08:47:19.261Z,11.54
2023-04-20T08:48:19.276Z,11.58
2023-04-20T08:49:19.238Z,11.58
2023-04-20T08:50:19.228Z,11.64
2023-04-20T08:51:19.218Z,11.54
2023-04-20T08:52:19.205Z,11.64
2023-04-20T08:53:19.228Z,11.64
2023-04-20T08:54:19.439Z,11.62
2023-04-20T08:55:19.183Z,11.66
2023-04-20T08:56:19.194Z,11.64
2023-04-20T08:57:19.153Z,11.61
2023-04-20T08:58:19.140Z,11.70
2023-04-20T08:59:19.150Z,11.61
2023-04-20T09:00:19.122Z,11.62
2023-04-20T09:01:25.471Z,11.73
2023-04-20T09:02:20.302Z,11.67
2023-04-20T09:03:19.242Z,11.73
2023-04-20T09:04:19.734Z,11.71
2023-04-20T09:05:19.106Z,11.71
2023-04-20T09:06:20.115Z,11.77
2023-04-20T09:07:19.050Z,11.73
2023-04-20T09:08:19.030Z,11.69
2023-04-20T09:09:19.052Z,11.77
2023-04-20T09:10:19.007Z,11.66
2023-04-20T09:11:19.025Z,11.66
2023-04-20T09:12:20.017Z,11.77
2023-04-20T09:13:18.983Z,11.76
2023-04-20T09:14:19.221Z,11.66
2023-04-20T09:15:18.972Z,11.73
2023-04-20T09:16:18.948Z,11.66
2023-04-20T09:17:19.059Z,11.61
2023-04-20T09:18:18.934Z,11.76
2023-04-20T09:19:18.935Z,11.71
2023-04-20T09:20:18.902Z,11.79
2023-04-20T09:21:18.894Z,11.74
2023-04-20T09:22:18.874Z,11.64
2023-04-20T09:23:18.877Z,11.73
2023-04-20T09:24:19.033Z,11.73
2023-04-20T09:25:18.855Z,11.70
2023-04-20T09:26:18.859Z,11.77
2023-04-20T09:27:18.826Z,11.70
2023-04-20T09:28:18.814Z,11.73
2023-04-20T09:29:18.838Z,11.70
2023-04-20T09:30:18.812Z,11.74
2023-04-20T09:31:18.824Z,11.71
2023-04-20T09:32:18.793Z,11.76
2023-04-20T09:33:18.792Z,11.71
2023-04-20T09:34:18.875Z,11.67
2023-04-20T09:35:18.760Z,11.77
2023-04-20T09:36:18.726Z,11.66
2023-04-20T09:37:18.724Z,11.76
2023-04-20T09:38:18.708Z,11.80
2023-04-20T09:39:18.699Z,11.70
2023-04-20T09:40:18.713Z,11.74
2023-04-20T09:41:18.669Z,11.71
2023-04-20T09:42:18.721Z,11.79
2023-04-20T09:43:18.680Z,11.71
2023-04-20T09:44:18.884Z,11.80
2023-04-20T09:45:18.662Z,11.74
2023-04-20T09:46:18.659Z,11.71
2023-04-20T09:47:18.700Z,11.77
2023-04-20T09:48:18.605Z,11.80
2023-04-20T09:49:18.618Z,11.84
2023-04-20T09:50:26.713Z,11.80
2023-04-20T09:51:19.563Z,11.77
2023-04-20T09:52:18.629Z,11.80
2023-04-20T09:53:18.574Z,11.77
2023-04-20T09:54:18.678Z,11.82
2023-04-20T09:55:18.546Z,11.84
2023-04-20T09:56:18.514Z,11.87
2023-04-20T09:57:18.499Z,11.93
2023-04-20T09:58:18.480Z,11.84
2023-04-20T09:59:18.469Z,11.89
2023-04-20T10:00:18.491Z,11.91
2023-04-20T10:01:18.502Z,11.96
2023-04-20T10:02:18.498Z,11.93
2023-04-20T10:03:18.720Z,11.87
2023-04-20T10:04:18.770Z,11.93
2023-04-20T10:05:18.434Z,11.91
2023-04-20T10:06:18.418Z,11.99
2023-04-20T10:07:18.389Z,12.03
2023-04-20T10:08:18.371Z,11.87
2023-04-20T10:09:18.383Z,12.08
2023-04-20T10:10:18.355Z,12.04
2023-04-20T10:11:18.371Z,12.05
2023-04-20T10:12:18.330Z,11.99
2023-04-20T10:13:18.323Z,12.07
2023-04-20T10:14:18.570Z,12.17
2023-04-20T10:15:18.301Z,12.15
2023-04-20T10:16:18.327Z,12.22
2023-04-20T10:17:18.417Z,12.21
2023-04-20T10:18:18.371Z,12.21
2023-04-20T10:19:18.259Z,12.32
2023-04-20T10:20:18.248Z,12.33
2023-04-20T10:21:18.252Z,12.32
2023-04-20T10:22:18.243Z,12.44
2023-04-20T10:23:18.256Z,12.40
2023-04-20T10:24:20.290Z,12.48
2023-04-20T10:25:18.198Z,12.48
2023-04-20T10:26:18.187Z,12.59
2023-04-20T10:27:18.165Z,12.55
2023-04-20T10:28:18.157Z,12.59
2023-04-20T10:29:18.186Z,12.66
2023-04-20T10:30:18.183Z,12.62
2023-04-20T10:31:18.159Z,12.80
2023-04-20T10:32:18.119Z,12.69
2023-04-20T10:33:18.139Z,12.69
2023-04-20T10:34:18.345Z,12.80
2023-04-20T10:35:18.087Z,12.80
2023-04-20T10:36:18.080Z,12.84
2023-04-20T10:37:18.087Z,12.93
2023-04-20T10:38:18.065Z,13.01
2023-04-20T10:39:19.547Z,13.02
2023-04-20T10:40:18.076Z,13.23
2023-04-20T10:41:18.016Z,13.13
2023-04-20T10:42:18.284Z,13.30
2023-04-20T10:43:18.001Z,13.57
2023-04-20T10:44:18.131Z,13.73
2023-04-20T10:45:17.995Z,13.93
2023-04-20T10:46:18.078Z,13.91
2023-04-20T10:47:17.958Z,14.08
2023-04-20T10:48:18.458Z,14.27
2023-04-20T10:49:18.208Z,14.37
2023-04-20T10:50:17.995Z,14.59
2023-04-20T10:51:17.918Z,14.86
2023-04-20T10:52:17.898Z,15.01
2023-04-20T10:53:17.917Z,15.14
2023-04-20T10:54:18.505Z,15.30
2023-04-20T10:55:17.900Z,15.44
2023-04-20T10:56:17.876Z,15.56
2023-04-20T10:57:17.856Z,15.76
2023-04-20T10:58:17.832Z,15.88
2023-04-20T10:59:18.351Z,16.08
2023-04-20T11:00:17.898Z,16.03
2023-04-20T11:01:17.824Z,16.18
2023-04-20T11:02:18.016Z,16.24
2023-04-20T11:03:17.898Z,16.25
2023-04-20T11:04:19.103Z,16.32
2023-04-20T11:05:17.872Z,16.33
2023-04-20T11:06:17.749Z,16.36
2023-04-20T11:07:17.766Z,16.42
2023-04-20T11:08:17.748Z,16.51
2023-04-20T11:09:17.947Z,16.58
2023-04-20T11:10:17.867Z,16.58
2023-04-20T11:11:17.692Z,16.64
2023-04-20T11:12:17.682Z,16.64
2023-04-20T11:13:17.674Z,16.64
2023-04-20T11:14:17.685Z,16.64
2023-04-20T11:15:17.647Z,16.64
2023-04-20T11:16:17.724Z,16.69
2023-04-20T11:17:17.739Z,16.59
2023-04-20T11:18:17.737Z,16.64
2023-04-20T11:19:17.808Z,16.72
2023-04-20T11:20:17.824Z,16.76
2023-04-20T11:21:17.606Z,16.69
2023-04-20T11:22:17.586Z,16.72
2023-04-20T11:23:17.568Z,16.74
2023-04-20T11:24:17.554Z,16.64
2023-04-20T11:25:17.569Z,16.72
2023-04-20T11:26:17.547Z,16.74
2023-04-20T11:27:17.523Z,17.04
2023-04-20T11:28:17.536Z,17.16
2023-04-20T11:29:17.798Z,17.46
2023-04-20T11:30:17.500Z,17.38
2023-04-20T11:31:17.588Z,17.43
2023-04-20T11:32:17.643Z,17.28
2023-04-20T11:33:17.566Z,17.20
2023-04-20T11:34:17.444Z,17.14
2023-04-20T11:35:17.433Z,17.16
2023-04-20T11:36:17.441Z,17.14
2023-04-20T11:37:17.410Z,17.13
2023-04-20T11:38:17.399Z,17.13
2023-04-20T11:39:17.548Z,17.09
2023-04-20T11:40:17.369Z,17.14
2023-04-20T11:41:17.663Z,17.10
2023-04-20T11:42:17.350Z,17.14
2023-04-20T11:43:17.348Z,17.02
2023-04-20T11:44:17.327Z,17.02
2023-04-20T11:45:17.326Z,17.04
2023-04-20T11:46:17.443Z,16.97
2023-04-20T11:47:17.302Z,16.95
2023-04-20T11:48:17.285Z,17.02
2023-04-20T11:49:17.580Z,16.98
2023-04-20T11:50:17.269Z,17.02
2023-04-20T11:51:17.276Z,16.94
2023-04-20T11:52:17.249Z,16.99
2023-04-20T11:53:17.234Z,16.99
2023-04-20T11:54:17.234Z,16.98
2023-04-20T11:55:17.293Z,16.94
2023-04-20T11:56:17.225Z,16.98
2023-04-20T11:57:17.236Z,16.92
2023-04-20T11:58:17.187Z,16.91
2023-04-20T11:59:17.541Z,16.84
2023-04-20T12:00:17.160Z,16.90
2023-04-20T12:01:17.151Z,16.87
2023-04-20T12:02:17.203Z,16.90
2023-04-20T12:03:17.412Z,16.84
2023-04-20T12:04:17.503Z,16.82
2023-04-20T12:05:17.181Z,16.90
2023-04-20T12:06:17.097Z,16.91
2023-04-20T12:07:17.105Z,16.90
2023-04-20T12:08:17.079Z,16.83
2023-04-20T12:09:17.244Z,16.82
2023-04-20T12:10:17.075Z,16.83
2023-04-20T12:11:17.039Z,16.82
2023-04-20T12:12:17.059Z,16.82
2023-04-20T12:13:17.101Z,16.83
2023-04-20T12:14:17.022Z,16.84
2023-04-20T12:15:17.002Z,16.82
2023-04-20T12:16:17.057Z,16.92
2023-04-20T12:17:17.004Z,16.87
2023-04-20T12:18:16.981Z,16.90
2023-04-20T12:19:17.376Z,16.90
2023-04-20T12:20:16.954Z,16.91
2023-04-20T12:21:16.943Z,16.91
2023-04-20T12:22:16.949Z,16.84
2023-04-20T12:23:16.911Z,16.88
2023-04-20T12:24:16.909Z,16.87
2023-04-20T12:25:16.886Z,16.97
2023-04-20T12:26:16.892Z,17.01
2023-04-20T12:27:16.905Z,17.06
2023-04-20T12:28:16.856Z,17.04
2023-04-20T12:29:17.224Z,17.16
2023-04-20T12:30:16.832Z,17.04
2023-04-20T12:31:16.866Z,17.06
2023-04-20T12:32:16.853Z,17.06
2023-04-20T12:33:16.798Z,17.17
2023-04-20T12:34:16.934Z,17.12
2023-04-20T12:35:16.780Z,17.07
2023-04-20T12:36:16.793Z,17.22
2023-04-20T12:37:16.774Z,17.13
2023-04-20T12:38:16.751Z,17.22
2023-04-20T12:39:16.738Z,17.19
2023-04-20T12:40:16.743Z,17.17
2023-04-20T12:41:16.760Z,17.25
2023-04-20T12:42:16.718Z,17.27
2023-04-20T12:43:16.691Z,17.27
2023-04-20T12:44:16.854Z,17.27
2023-04-20T12:45:16.788Z,17.28
2023-04-20T12:46:16.765Z,17.30
2023-04-20T12:47:16.670Z,17.31
2023-04-20T12:48:16.695Z,17.37
2023-04-20T12:49:16.898Z,17.37
2023-04-20T12:50:16.622Z,17.37
2023-04-20T12:51:16.601Z,17.38
2023-04-20T12:52:16.597Z,17.39
2023-04-20T12:53:16.608Z,17.46
2023-04-20T12:54:16.842Z,17.52
2023-04-20T12:55:16.568Z,17.49
2023-04-20T12:56:16.578Z,17.45
2023-04-20T12:57:16.533Z,17.46
2023-04-20T12:58:16.552Z,17.63
2023-04-20T12:59:16.518Z,17.68
2023-04-20T13:00:16.567Z,17.65
2023-04-20T13:01:16.577Z,17.75
2023-04-20T13:02:16.548Z,17.78
2023-04-20T13:03:16.640Z,17.88
2023-04-20T13:04:17.089Z,17.87